• Join FlightAware (Why Join?)
  • Login
  • US Flag 
06:42AM EST


 

Airport Tracker/Info


-or-


 

Live Flight TrackerFlight Track Log ✈ SWA946 ✈ 13-Apr-2013 ✈ KDEN - KSAN

Flight Track Log - Related Links

Times and Time Zones

All times are in EDT time to prevent confusion due to time zone crossing. See the SWA946 flight status page for this flight to view local times or setup timezone preferences in your user account.

Time Position Orientation Groundspeed Altitude Reporting Facility
EDT Latitude Longitude Course Direction KTS MPH feet Rate Location/Type
09:36PM 39.8500 -104.8500 243° Southwest 284 327 10,000  Level Denver TRACON
09:37PM 39.8000 -104.9333 232° Southwest 283 326 11,500 840 Climbing Denver TRACON
09:38PM 39.7561 -105.0547 245° Southwest 312 359 12,000 1,920 Climbing Denver Center
09:39PM 39.7153 -105.1686 245° Southwest 322 371 16,000 3,540 Climbing Denver Center
09:40PM 39.6074 -105.4296 245° Southwest  Level FlightAware Approximate
09:40PM 39.6697 -105.2956 245° Southwest 319 367 20,100  Level Denver Center
09:41PM 39.6281 -105.4094 245° Southwest 346 398 22,800 2,400 Climbing Denver Center
09:42PM 39.5881 -105.5192 245° Southwest 348 400 25,100 1,680 Climbing Denver Center
09:43PM 39.5433 -105.6458 245° Southwest 384 442 26,300 1,560 Climbing Denver Center
09:44PM 39.5058 -105.7825 250° West 399 459 28,300 1,860 Climbing Denver Center
09:45PM 39.4597 -105.9136 246° West 395 455 30,200 1,980 Climbing Denver Center
09:46PM 39.4053 -106.0175 236° Southwest 407 468 32,400 2,520 Climbing Denver Center
09:47PM 39.3300 -106.1764 239° Southwest 389 448 35,400 1,980 Climbing Denver Center
09:48PM 39.2789 -106.2864 239° Southwest 376 433 36,500 780 Climbing Denver Center
09:49PM 39.2219 -106.4017 238° Southwest 393 452 37,000 780 Climbing Denver Center
09:50PM 39.1522 -106.5397 237° Southwest 409 471 38,200 1,080 Climbing Denver Center
09:51PM 39.0967 -106.6581 239° Southwest 406 467 39,300 840 Climbing Denver Center
09:52PM 39.0297 -106.7944 238° Southwest 402 463 40,000 300 Climbing Denver Center
09:53PM 38.9719 -106.9086 237° Southwest 399 459 40,000  Level Denver Center
09:54PM 38.9147 -107.0247 238° Southwest 400 460 40,000  Level Denver Center
09:55PM 38.8547 -107.1450 237° Southwest 392 451 40,000  Level Denver Center
09:56PM 38.7933 -107.2661 237° Southwest 385 443 40,000  Level Denver Center
09:57PM 38.7286 -107.3972 238° Southwest 389 448 40,000  Level Denver Center
09:58PM 38.6717 -107.5100 237° Southwest 393 452 40,000  Level Denver Center
09:59PM 38.6142 -107.6231 237° Southwest 395 455 40,000 -120 Level Denver Center
10:00PM 38.5483 -107.7558 238° Southwest 395 455 39,800 -1,140 Descending Denver Center
10:01PM 38.4914 -107.8656 236° Southwest 389 448 37,700 -2,040 Descending Denver Center
10:03PM 38.4361 -107.9772 238° Southwest 388 447 35,700 -1,860 Descending Denver Center
10:04PM 38.3703 -108.1033 236° Southwest 384 442 34,000 -840 Descending Denver Center
10:05PM 38.3117 -108.2158 236° Southwest 394 453 34,000  Level Denver Center
10:06PM 38.2539 -108.3297 237° Southwest 396 456 34,000  Level Denver Center
10:07PM 38.1883 -108.4592 237° Southwest 389 448 34,000  Level Denver Center
10:08PM 38.1317 -108.5661 236° Southwest 384 442 34,000  Level Denver Center
10:09PM 38.0650 -108.6942 237° Southwest 386 444 34,000  Level Denver Center
10:10PM 38.0106 -108.7981 236° Southwest 390 449 34,000 -900 Level Denver Center
10:11PM 37.9356 -108.9383 236° Southwest 379 436 32,100 -1,020 Descending Denver Center
10:12PM 37.8808 -109.0408 236° Southwest 370 426 32,000 -60 Descending Denver Center
10:13PM 37.8147 -109.1653 236° Southwest 379 436 32,000  Level Denver Center
10:14PM 37.7583 -109.2722 236° Southwest 382 440 32,000  Level Denver Center
10:15PM 37.7008 -109.3786 236° Southwest 384 442 32,000  Level Denver Center
10:16PM 37.6350 -109.5031 236° Southwest 382 440 32,000  Level Denver Center
10:17PM 37.5775 -109.6106 236° Southwest 387 445 32,000  Level Denver Center
10:18PM 37.5186 -109.7194 236° Southwest 392 451 32,000  Level Denver Center
10:19PM 37.4519 -109.8433 236° Southwest 385 443 32,000  Level Denver Center
10:20PM 37.3944 -109.9492 236° Southwest 383 441 32,000  Level Denver Center
10:21PM 37.3275 -110.0731 236° Southwest 387 445 32,000  Level Denver Center
10:22PM 37.2658 -110.1864 236° Southwest 386 444 32,000  Level Denver Center
10:23PM 37.2042 -110.2981 235° Southwest 388 447 32,000  Level Denver Center
10:24PM 37.1419 -110.4114 235° Southwest 395 455 32,000  Level Denver Center
10:25PM 37.0800 -110.5242 235° Southwest 393 452 32,000  Level Denver Center
10:26PM 37.0169 -110.6383 235° Southwest 398 458 32,000  Level Denver Center
10:27PM 36.9539 -110.7508 235° Southwest 395 455 32,000  Level Denver Center
10:28PM 36.8897 -110.8650 235° Southwest 398 458 32,000  Level Denver Center
10:29PM 36.8253 -110.9794 235° Southwest 404 465 32,000  Level Denver Center
10:30PM 36.7633 -111.0917 235° Southwest 397 457 32,000  Level Denver Center
10:31PM 36.7008 -111.2056 236° Southwest 395 455 32,000  Level Denver Center
10:32PM 36.6350 -111.3208 235° Southwest 403 464 32,000  Level Denver Center
10:33PM 36.5683 -111.4378 235° Southwest 410 472 32,000  Level Denver Center
10:34PM 36.5158 -111.5286 234° Southwest 408 470 32,000  Level Denver Center
10:35PM 36.4372 -111.6686 235° Southwest 410 472 32,000  Level Denver Center
10:36PM 36.3553 -111.8089 234° Southwest 415 478 32,000  Level Denver Center
10:37PM 36.2897 -111.9250 235° Southwest 413 475 32,000  Level Denver Center
10:38PM 36.2211 -112.0433 234° Southwest 419 482 32,000  Level Denver Center
10:39PM 36.1522 -112.1619 234° Southwest 423 487 32,000  Level Denver Center
10:40PM 36.0858 -112.2778 235° Southwest 417 480 32,000  Level Denver Center
10:41PM 36.0186 -112.3906 234° Southwest 410 472 32,000  Level Denver Center
10:43PM 35.9417 -112.5217 234° Southwest 411 473 32,000  Level Los Angeles Center
10:44PM 35.8753 -112.6369 235° Southwest 414 476 32,000  Level Los Angeles Center
10:45PM 35.8078 -112.7511 234° Southwest 416 479 32,000  Level Los Angeles Center
10:46PM 35.7144 -112.9100 234° Southwest 414 476 32,000  Level Los Angeles Center
10:47PM 35.6436 -113.0286 234° Southwest 418 481 32,000  Level Los Angeles Center
10:48PM 35.5733 -113.1453 233° Southwest 424 488 32,000  Level Los Angeles Center
10:49PM 35.5039 -113.2617 234° Southwest 422 486 32,000  Level Los Angeles Center
10:50PM 35.4417 -113.3669 234° Southwest 421 484 32,000  Level Los Angeles Center
10:51PM 35.3869 -113.4572 233° Southwest 419 482 32,000  Level Los Angeles Center
10:52PM 35.2908 -113.6167 234° Southwest 418 481 32,000  Level Los Angeles Center
10:53PM 35.2217 -113.7297 233° Southwest 418 481 32,000  Level Los Angeles Center
10:54PM 35.1531 -113.8422 233° Southwest 416 479 32,000  Level Los Angeles Center
10:55PM 35.0875 -113.9514 234° Southwest 420 483 32,000  Level Los Angeles Center
10:56PM 35.0028 -114.0894 233° Southwest 422 486 32,000  Level Los Angeles Center
10:57PM 34.9328 -114.2044 233° Southwest 422 486 32,000  Level Los Angeles Center
10:58PM 34.8633 -114.3175 233° Southwest 417 480 32,000 -420 Level Los Angeles Center
10:59PM 34.7914 -114.4339 233° Southwest 425 489 31,200 -1,020 Descending Los Angeles Center
11:00PM 34.7108 -114.5375 227° Southwest 420 483 30,000 -600 Descending Los Angeles Center
11:01PM 34.6239 -114.6350 223° Southwest 431 496 30,000  Level Los Angeles Center
11:02PM 34.5364 -114.7358 224° Southwest 435 501 30,000  Level Los Angeles Center
11:03PM 34.4481 -114.8350 223° Southwest 433 498 30,000  Level Los Angeles Center
11:04PM 34.3597 -114.9350 223° Southwest 435 501 30,000  Level Los Angeles Center
11:05PM 34.2539 -115.0547 223° Southwest 434 499 30,000  Level Los Angeles Center
11:06PM 34.1658 -115.1542 223° Southwest 434 499 30,000  Level Los Angeles Center
11:07PM 34.0775 -115.2536 223° Southwest 434 499 30,000  Level Los Angeles Center
11:08PM 33.9883 -115.3517 222° Southwest 434 499 30,000  Level Los Angeles Center
11:09PM 33.8992 -115.4528 223° Southwest 441 507 30,000  Level Los Angeles Center
11:10PM 33.8100 -115.5503 222° Southwest 435 501 30,000  Level Los Angeles Center
11:11PM 33.7244 -115.6478 223° Southwest 427 491 30,000 -960 Level Los Angeles Center
11:12PM 33.6361 -115.7439 222° Southwest 429 494 28,100 -2,340 Descending Los Angeles Center
11:13PM 33.5553 -115.8731 233° Southwest 408 470 25,300 -2,040 Descending Los Angeles Center
11:14PM 33.4861 -115.9731 230° Southwest 397 457 24,000 -1,320 Descending Los Angeles Center
11:16PM 33.4003 -116.0564 219° Southwest 400 460 22,700 -2,040 Descending Los Angeles Center
11:17PM 33.3144 -116.1406 219° Southwest 399 459 19,900 -2,520 Descending Los Angeles Center
11:18PM 33.2317 -116.2233 220° Southwest 394 453 17,600 -2,160 Descending Los Angeles Center
11:19PM 33.1519 -116.3008 219° Southwest 379 436 15,600 -1,980 Descending Los Angeles Center
11:20PM 33.0758 -116.3747 219° Southwest 362 417 13,600 -1,800 Descending Los Angeles Center
11:21PM 32.9914 -116.4528 218° Southwest 349 402 12,000 -1,260 Descending Los Angeles Center
11:22PM 32.9094 -116.5028 207° Southwest 336 387 11,100 -1,020 Descending Los Angeles Center
11:23PM 32.8625 -116.5886 237° Southwest 304 350 10,000 -1,200 Descending Los Angeles Center
11:24PM 32.8208 -116.6650 237° Southwest 285 328 8,700 -1,320 Descending Los Angeles Center
11:25PM 32.7806 -116.7378 237° Southwest 271 312 7,400 -1,320 Descending Los Angeles Center
11:26PM 32.7411 -116.8089 237° Southwest 262 302 6,000 -1,200 Descending Los Angeles Center
11:27PM 32.7033 -116.8783 237° Southwest 254 292 5,000 -1,140 Descending Los Angeles Center
11:28PM 32.6667 -116.9500 239° Southwest 242 278 4,000 -1,200 Descending Southern California TRACON
11:29PM 32.6833 -117.0167 287° West 229 264 3,000 -1,080 Descending Southern California TRACON
11:30PM 32.7000 -117.0833 287° West 180 207 1,800 -900 Descending Southern California TRACON
11:31PM 32.7167 -117.1333 292° West 148 170 1,200 -840 Descending Southern California TRACON
11:31PM 32.7197 -117.1372 313° West 154 177 800 -840 Descending Los Angeles Center
11:32PM 32.7306 -117.1806 287° West 143 165 100 -720 Descending Los Angeles Center
11:34PM 32.7333 -117.1833 281° West  Level FlightAware Approximate
11:41PM 32.7336 -117.1897 281° West  Level Estimated